sensor_id;sensor_type;location;lat;lon;timestamp;pressure;altitude;pressure_sealevel;temperature;humidity
80853;BME280;70270;43.434;28.338;2024-01-11T00:01:50;101251.25;;;0.48;51.70
80853;BME280;70270;43.434;28.338;2024-01-11T00:04:35;101238.88;;;0.47;51.65
80853;BME280;70270;43.434;28.338;2024-01-11T00:07:22;101242.88;;;0.65;51.22
80853;BME280;70270;43.434;28.338;2024-01-11T00:10:10;101236.66;;;0.28;51.26
80853;BME280;70270;43.434;28.338;2024-01-11T00:12:54;101233.56;;;0.47;51.39
80853;BME280;70270;43.434;28.338;2024-01-11T00:15:39;101246.31;;;0.67;50.95
80853;BME280;70270;43.434;28.338;2024-01-11T00:18:23;101187.09;;;0.00;50.94
80853;BME280;70270;43.434;28.338;2024-01-11T00:21:08;101237.72;;;0.38;51.67
80853;BME280;70270;43.434;28.338;2024-01-11T00:23:53;101207.56;;;0.13;51.78
80853;BME280;70270;43.434;28.338;2024-01-11T00:26:37;101097.53;;;-0.38;51.59
80853;BME280;70270;43.434;28.338;2024-01-11T00:29:22;101217.16;;;0.28;51.32
80853;BME280;70270;43.434;28.338;2024-01-11T00:32:06;101224.94;;;0.18;51.98
80853;BME280;70270;43.434;28.338;2024-01-11T00:34:54;101210.25;;;-0.13;51.97
80853;BME280;70270;43.434;28.338;2024-01-11T00:37:39;101261.94;;;0.23;51.63
80853;BME280;70270;43.434;28.338;2024-01-11T00:40:26;101202.78;;;-0.08;51.47
80853;BME280;70270;43.434;28.338;2024-01-11T00:43:10;101257.69;;;0.08;51.64
80853;BME280;70270;43.434;28.338;2024-01-11T00:45:55;101182.84;;;-0.40;51.64
80853;BME280;70270;43.434;28.338;2024-01-11T00:48:39;101222.06;;;0.09;51.24
80853;BME280;70270;43.434;28.338;2024-01-11T00:51:26;101215.03;;;-0.18;50.83
80853;BME280;70270;43.434;28.338;2024-01-11T00:54:10;101226.97;;;0.15;50.80
80853;BME280;70270;43.434;28.338;2024-01-11T00:56:55;101228.16;;;0.23;50.59
80853;BME280;70270;43.434;28.338;2024-01-11T00:59:40;101226.53;;;0.21;51.10
80853;BME280;70270;43.434;28.338;2024-01-11T01:02:24;101062.94;;;-0.89;50.67
80853;BME280;70270;43.434;28.338;2024-01-11T01:05:09;101207.16;;;-0.07;50.86
80853;BME280;70270;43.434;28.338;2024-01-11T01:08:00;101209.41;;;-0.13;50.61
80853;BME280;70270;43.434;28.338;2024-01-11T01:10:44;101222.06;;;0.09;50.29
80853;BME280;70270;43.434;28.338;2024-01-11T01:13:30;101202.91;;;0.04;50.19
80853;BME280;70270;43.434;28.338;2024-01-11T01:16:15;101243.59;;;0.06;49.03
80853;BME280;70270;43.434;28.338;2024-01-11T01:19:02;101205.66;;;0.27;49.14
80853;BME280;70270;43.434;28.338;2024-01-11T01:21:46;101214.69;;;0.25;48.83
80853;BME280;70270;43.434;28.338;2024-01-11T01:24:31;101182.69;;;0.37;48.55
80853;BME280;70270;43.434;28.338;2024-01-11T01:27:16;101191.53;;;0.51;48.60
80853;BME280;70270;43.434;28.338;2024-01-11T01:30:00;101059.50;;;-0.28;47.97
80853;BME280;70270;43.434;28.338;2024-01-11T01:32:45;101202.31;;;0.36;48.43
80853;BME280;70270;43.434;28.338;2024-01-11T01:35:32;101169.78;;;0.44;48.19
80853;BME280;70270;43.434;28.338;2024-01-11T01:38:19;101180.03;;;0.37;48.55
80853;BME280;70270;43.434;28.338;2024-01-11T01:41:03;101168.22;;;0.29;48.10
80853;BME280;70270;43.434;28.338;2024-01-11T01:43:47;101039.06;;;-0.27;47.95
80853;BME280;70270;43.434;28.338;2024-01-11T01:46:32;101144.06;;;0.07;47.91
80853;BME280;70270;43.434;28.338;2024-01-11T01:49:21;101177.78;;;0.44;48.15
80853;BME280;70270;43.434;28.338;2024-01-11T01:52:10;101187.16;;;0.37;47.66
80853;BME280;70270;43.434;28.338;2024-01-11T01:54:55;101161.19;;;0.28;48.09
80853;BME280;70270;43.434;28.338;2024-01-11T01:57:48;101081.66;;;-0.27;47.87
80853;BME280;70270;43.434;28.338;2024-01-11T02:00:34;101190.06;;;0.34;48.83
80853;BME280;70270;43.434;28.338;2024-01-11T02:03:18;100991.00;;;-0.62;48.38
80853;BME280;70270;43.434;28.338;2024-01-11T02:06:05;101128.72;;;-0.03;48.99
80853;BME280;70270;43.434;28.338;2024-01-11T02:08:52;101148.63;;;0.05;49.19
80853;BME280;70270;43.434;28.338;2024-01-11T02:11:40;101141.41;;;0.07;49.15
80853;BME280;70270;43.434;28.338;2024-01-11T02:14:27;101153.88;;;0.06;49.04
80853;BME280;70270;43.434;28.338;2024-01-11T02:17:12;101015.88;;;-0.63;48.86
80853;BME280;70270;43.434;28.338;2024-01-11T02:19:57;101047.09;;;-0.53;48.36
80853;BME280;70270;43.434;28.338;2024-01-11T02:22:50;101140.47;;;-0.05;48.69
80853;BME280;70270;43.434;28.338;2024-01-11T02:25:36;101149.31;;;-0.05;48.72
80853;BME280;70270;43.434;28.338;2024-01-11T02:28:26;101056.34;;;-0.58;48.68
80853;BME280;70270;43.434;28.338;2024-01-11T02:31:12;100998.47;;;-0.92;48.72
80853;BME280;70270;43.434;28.338;2024-01-11T02:33:58;101154.94;;;-0.09;48.88
80853;BME280;70270;43.434;28.338;2024-01-11T02:36:42;101165.16;;;-0.16;49.21
80853;BME280;70270;43.434;28.338;2024-01-11T02:39:27;101183.50;;;0.02;48.54
80853;BME280;70270;43.434;28.338;2024-01-11T02:42:12;101117.44;;;-0.19;48.38
80853;BME280;70270;43.434;28.338;2024-01-11T02:44:56;101138.34;;;0.00;48.46
80853;BME280;70270;43.434;28.338;2024-01-11T02:47:41;100872.94;;;-1.48;48.22
80853;BME280;70270;43.434;28.338;2024-01-11T02:50:25;101088.06;;;-0.17;47.79
80853;BME280;70270;43.434;28.338;2024-01-11T02:53:10;101154.06;;;0.16;47.78
80853;BME280;70270;43.434;28.338;2024-01-11T02:55:54;101134.97;;;0.22;47.88
80853;BME280;70270;43.434;28.338;2024-01-11T02:58:41;101151.91;;;0.21;46.96
80853;BME280;70270;43.434;28.338;2024-01-11T03:01:26;101137.41;;;0.25;47.50
80853;BME280;70270;43.434;28.338;2024-01-11T03:04:10;101136.78;;;0.09;47.08
80853;BME280;70270;43.434;28.338;2024-01-11T03:06:55;101113.28;;;-0.23;47.66
80853;BME280;70270;43.434;28.338;2024-01-11T03:09:42;101100.81;;;-0.10;47.39
80853;BME280;70270;43.434;28.338;2024-01-11T03:12:27;101107.19;;;0.00;47.43
80853;BME280;70270;43.434;28.338;2024-01-11T03:15:12;101109.84;;;0.00;47.21
80853;BME280;70270;43.434;28.338;2024-01-11T03:17:57;100951.75;;;-0.97;47.28
80853;BME280;70270;43.434;28.338;2024-01-11T03:20:41;100818.06;;;-2.25;47.46
80853;BME280;70270;43.434;28.338;2024-01-11T03:23:26;101098.50;;;-0.27;47.59
80853;BME280;70270;43.434;28.338;2024-01-11T03:26:17;101100.28;;;-0.15;47.84
80853;BME280;70270;43.434;28.338;2024-01-11T03:29:02;101090.41;;;-0.25;47.75
80853;BME280;70270;43.434;28.338;2024-01-11T03:31:49;101099.56;;;-0.42;48.30
80853;BME280;70270;43.434;28.338;2024-01-11T03:34:33;101086.81;;;-0.37;47.92
80853;BME280;70270;43.434;28.338;2024-01-11T03:37:18;100940.25;;;-1.22;47.94
80853;BME280;70270;43.434;28.338;2024-01-11T03:40:03;101069.97;;;-0.37;48.16
80853;BME280;70270;43.434;28.338;2024-01-11T03:42:47;100983.88;;;-1.00;47.87
80853;BME280;70270;43.434;28.338;2024-01-11T03:45:32;101102.09;;;-0.15;48.08
80853;BME280;70270;43.434;28.338;2024-01-11T03:48:16;101111.25;;;-0.07;47.93
80853;BME280;70270;43.434;28.338;2024-01-11T03:51:03;101133.97;;;-0.26;47.86
80853;BME280;70270;43.434;28.338;2024-01-11T03:53:48;100955.06;;;-1.06;48.00
80853;BME280;70270;43.434;28.338;2024-01-11T03:56:32;101096.59;;;-0.50;48.37
80853;BME280;70270;43.434;28.338;2024-01-11T03:59:16;101083.59;;;-0.67;48.70
80853;BME280;70270;43.434;28.338;2024-01-11T04:02:01;101113.63;;;-0.53;48.89
80853;BME280;70270;43.434;28.338;2024-01-11T04:04:45;101071.25;;;-0.56;48.81
80853;BME280;70270;43.434;28.338;2024-01-11T04:07:30;101056.97;;;-0.67;48.55
80853;BME280;70270;43.434;28.338;2024-01-11T04:10:17;101092.97;;;-0.36;48.65
80853;BME280;70270;43.434;28.338;2024-01-11T04:13:01;101091.69;;;-0.56;48.81
80853;BME280;70270;43.434;28.338;2024-01-11T04:15:46;101114.56;;;-0.66;49.38
80853;BME280;70270;43.434;28.338;2024-01-11T04:18:31;101072.63;;;-1.01;49.55
80853;BME280;70270;43.434;28.338;2024-01-11T04:21:26;101092.91;;;-1.00;50.26
80853;BME280;70270;43.434;28.338;2024-01-11T04:24:14;101077.44;;;-1.20;51.11
80853;BME280;70270;43.434;28.338;2024-01-11T04:26:58;101110.16;;;-1.05;50.52
80853;BME280;70270;43.434;28.338;2024-01-11T04:29:42;100945.09;;;-1.67;50.32
80853;BME280;70270;43.434;28.338;2024-01-11T04:32:27;101074.63;;;-0.91;49.64
80853;BME280;70270;43.434;28.338;2024-01-11T04:35:11;101111.69;;;-0.88;49.83
80853;BME280;70270;43.434;28.338;2024-01-11T04:37:56;101079.00;;;-0.90;50.29
80853;BME280;70270;43.434;28.338;2024-01-11T04:40:41;100997.94;;;-1.62;50.50
80853;BME280;70270;43.434;28.338;2024-01-11T04:43:25;101045.19;;;-1.28;50.76
80853;BME280;70270;43.434;28.338;2024-01-11T04:46:20;101068.19;;;-1.27;51.14
80853;BME280;70270;43.434;28.338;2024-01-11T04:49:05;101059.81;;;-1.21;51.50
80853;BME280;70270;43.434;28.338;2024-01-11T04:51:49;101078.03;;;-1.02;51.02
80853;BME280;70270;43.434;28.338;2024-01-11T04:54:36;101108.47;;;-0.93;51.51
80853;BME280;70270;43.434;28.338;2024-01-11T04:57:22;101052.84;;;-0.97;50.47
80853;BME280;70270;43.434;28.338;2024-01-11T05:00:07;101091.31;;;0.12;67.04
80853;BME280;70270;43.434;28.338;2024-01-11T05:02:54;100996.00;;;0.74;65.63
80853;BME280;70270;43.434;28.338;2024-01-11T05:05:39;101060.81;;;1.77;60.03
80853;BME280;70270;43.434;28.338;2024-01-11T05:08:24;101065.06;;;1.47;46.55
80853;BME280;70270;43.434;28.338;2024-01-11T05:11:15;101089.53;;;0.83;46.65
80853;BME280;70270;43.434;28.338;2024-01-11T05:14:03;101052.47;;;0.20;47.83
80853;BME280;70270;43.434;28.338;2024-01-11T05:16:47;101068.41;;;-0.04;47.91
80853;BME280;70270;43.434;28.338;2024-01-11T05:19:32;101102.78;;;-0.37;48.69
80853;BME280;70270;43.434;28.338;2024-01-11T05:22:16;101079.44;;;-0.46;49.21
80853;BME280;70270;43.434;28.338;2024-01-11T05:25:01;101081.25;;;-0.72;49.68
80853;BME280;70270;43.434;28.338;2024-01-11T05:27:46;101055.16;;;-1.05;49.66
80853;BME280;70270;43.434;28.338;2024-01-11T05:30:31;101075.28;;;-1.01;49.80
80853;BME280;70270;43.434;28.338;2024-01-11T05:33:15;101049.84;;;-1.05;49.50
80853;BME280;70270;43.434;28.338;2024-01-11T05:35:59;101073.13;;;-0.96;49.55
80853;BME280;70270;43.434;28.338;2024-01-11T05:38:45;101068.69;;;-0.82;49.11
80853;BME280;70270;43.434;28.338;2024-01-11T05:41:29;101018.84;;;-1.18;49.26
80853;BME280;70270;43.434;28.338;2024-01-11T05:44:13;101064.63;;;-0.88;49.13
80853;BME280;70270;43.434;28.338;2024-01-11T05:46:58;101079.00;;;-0.90;49.40
80853;BME280;70270;43.434;28.338;2024-01-11T05:49:42;101085.63;;;-0.58;48.82
80853;BME280;70270;43.434;28.338;2024-01-11T05:52:27;101066.13;;;-0.84;48.92
80853;BME280;70270;43.434;28.338;2024-01-11T05:55:11;101001.41;;;-0.59;48.19
80853;BME280;70270;43.434;28.338;2024-01-11T05:57:56;101059.47;;;-0.03;49.97
80853;BME280;70270;43.434;28.338;2024-01-11T06:00:40;101060.59;;;0.19;48.94
80853;BME280;70270;43.434;28.338;2024-01-11T06:03:26;101053.44;;;0.19;47.40
80853;BME280;70270;43.434;28.338;2024-01-11T06:06:10;100902.25;;;-0.74;46.15
80853;BME280;70270;43.434;28.338;2024-01-11T06:08:56;101056.44;;;0.15;45.85
80853;BME280;70270;43.434;28.338;2024-01-11T06:11:41;101005.44;;;-0.28;46.56
80853;BME280;70270;43.434;28.338;2024-01-11T06:14:26;101037.13;;;-0.13;46.38
80853;BME280;70270;43.434;28.338;2024-01-11T06:17:10;101009.69;;;-0.38;46.68
80853;BME280;70270;43.434;28.338;2024-01-11T06:19:55;100923.53;;;-0.86;47.01
80853;BME280;70270;43.434;28.338;2024-01-11T06:22:40;101022.75;;;-0.23;47.40
80853;BME280;70270;43.434;28.338;2024-01-11T06:25:24;101027.13;;;-0.22;47.13
80853;BME280;70270;43.434;28.338;2024-01-11T06:28:09;101045.25;;;0.10;47.25
80853;BME280;70270;43.434;28.338;2024-01-11T06:30:53;100864.06;;;-0.85;47.11
80853;BME280;70270;43.434;28.338;2024-01-11T06:33:38;101027.41;;;0.46;46.59
80853;BME280;70270;43.434;28.338;2024-01-11T06:36:22;100884.81;;;-0.18;46.10
80853;BME280;70270;43.434;28.338;2024-01-11T06:39:07;101019.59;;;0.91;45.88
80853;BME280;70270;43.434;28.338;2024-01-11T06:41:52;101014.88;;;1.17;44.96
80853;BME280;70270;43.434;28.338;2024-01-11T06:44:36;100874.56;;;0.24;44.46
80853;BME280;70270;43.434;28.338;2024-01-11T06:47:21;100880.84;;;0.23;44.86
80853;BME280;70270;43.434;28.338;2024-01-11T06:50:06;101037.66;;;0.87;44.92
80853;BME280;70270;43.434;28.338;2024-01-11T06:52:51;100909.50;;;0.43;44.18
80853;BME280;70270;43.434;28.338;2024-01-11T06:55:35;101021.94;;;1.18;44.38
80853;BME280;70270;43.434;28.338;2024-01-11T06:58:21;101017.81;;;1.14;44.12
80853;BME280;70270;43.434;28.338;2024-01-11T07:01:08;100959.34;;;1.22;43.38
80853;BME280;70270;43.434;28.338;2024-01-11T07:03:52;101033.88;;;1.80;44.21
80853;BME280;70270;43.434;28.338;2024-01-11T07:06:36;101001.06;;;1.89;42.91
80853;BME280;70270;43.434;28.338;2024-01-11T07:09:21;100988.69;;;1.88;42.83
80853;BME280;70270;43.434;28.338;2024-01-11T07:12:07;100978.34;;;1.95;42.29
80853;BME280;70270;43.434;28.338;2024-01-11T07:14:51;100906.88;;;1.76;41.85
80853;BME280;70270;43.434;28.338;2024-01-11T07:17:36;101010.59;;;2.57;40.42
80853;BME280;70270;43.434;28.338;2024-01-11T07:20:20;100995.06;;;2.51;40.70
80853;BME280;70270;43.434;28.338;2024-01-11T07:23:05;101005.59;;;2.64;39.71
80853;BME280;70270;43.434;28.338;2024-01-11T07:25:50;100980.88;;;2.71;38.84
80853;BME280;70270;43.434;28.338;2024-01-11T07:28:35;100998.00;;;2.69;38.52
80853;BME280;70270;43.434;28.338;2024-01-11T07:31:22;100994.50;;;2.68;38.75
80853;BME280;70270;43.434;28.338;2024-01-11T07:34:07;100923.94;;;2.28;38.08
80853;BME280;70270;43.434;28.338;2024-01-11T07:36:52;100991.94;;;2.67;38.67
80853;BME280;70270;43.434;28.338;2024-01-11T07:39:37;100981.25;;;2.88;38.57
80853;BME280;70270;43.434;28.338;2024-01-11T07:42:21;100948.56;;;2.63;38.32
80853;BME280;70270;43.434;28.338;2024-01-11T07:45:06;101006.84;;;3.01;38.80
80853;BME280;70270;43.434;28.338;2024-01-11T07:47:51;100975.25;;;3.16;37.86
80853;BME280;70270;43.434;28.338;2024-01-11T07:50:36;100838.38;;;2.28;38.18
80853;BME280;70270;43.434;28.338;2024-01-11T07:53:20;100977.47;;;3.71;37.68
80853;BME280;70270;43.434;28.338;2024-01-11T07:56:05;100977.28;;;3.33;37.75
80853;BME280;70270;43.434;28.338;2024-01-11T07:58:49;100980.59;;;3.76;37.04
80853;BME280;70270;43.434;28.338;2024-01-11T08:01:34;100960.34;;;3.23;37.20
80853;BME280;70270;43.434;28.338;2024-01-11T08:04:19;100894.28;;;3.03;37.33
80853;BME280;70270;43.434;28.338;2024-01-11T08:07:04;100964.50;;;3.76;35.82
80853;BME280;70270;43.434;28.338;2024-01-11T08:09:49;100960.13;;;3.75;36.22
80853;BME280;70270;43.434;28.338;2024-01-11T08:12:34;100933.66;;;4.11;36.85
80853;BME280;70270;43.434;28.338;2024-01-11T08:15:18;100986.59;;;4.09;36.62
80853;BME280;70270;43.434;28.338;2024-01-11T08:18:03;100960.09;;;4.44;36.29
80853;BME280;70270;43.434;28.338;2024-01-11T08:20:49;100921.91;;;4.69;35.67
80853;BME280;70270;43.434;28.338;2024-01-11T08:23:33;100942.63;;;5.06;35.52
80853;BME280;70270;43.434;28.338;2024-01-11T08:26:18;100941.69;;;4.88;34.19
80853;BME280;70270;43.434;28.338;2024-01-11T08:29:06;100928.03;;;4.52;34.31
80853;BME280;70270;43.434;28.338;2024-01-11T08:31:50;100903.56;;;4.75;33.72
80853;BME280;70270;43.434;28.338;2024-01-11T08:34:36;100787.66;;;4.52;33.13
80853;BME280;70270;43.434;28.338;2024-01-11T08:37:20;100916.44;;;5.82;33.50
80853;BME280;70270;43.434;28.338;2024-01-11T08:40:05;100892.19;;;6.44;32.84
80853;BME280;70270;43.434;28.338;2024-01-11T08:42:50;100859.91;;;6.44;32.49
80853;BME280;70270;43.434;28.338;2024-01-11T08:45:35;100872.03;;;6.74;31.77
80853;BME280;70270;43.434;28.338;2024-01-11T08:48:19;100896.47;;;6.73;32.73
80853;BME280;70270;43.434;28.338;2024-01-11T08:51:04;100886.06;;;6.78;32.75
80853;BME280;70270;43.434;28.338;2024-01-11T08:53:49;100901.97;;;6.28;31.83
80853;BME280;70270;43.434;28.338;2024-01-11T08:56:33;100863.06;;;6.04;32.39
80853;BME280;70270;43.434;28.338;2024-01-11T08:59:18;100892.19;;;5.64;31.79
80853;BME280;70270;43.434;28.338;2024-01-11T09:02:03;100882.41;;;5.45;33.19
80853;BME280;70270;43.434;28.338;2024-01-11T09:04:47;100727.56;;;4.90;33.61
80853;BME280;70270;43.434;28.338;2024-01-11T09:07:32;100799.22;;;5.89;33.21
80853;BME280;70270;43.434;28.338;2024-01-11T09:10:16;100854.19;;;5.77;32.54
80853;BME280;70270;43.434;28.338;2024-01-11T09:13:01;100830.66;;;5.61;33.00
80853;BME280;70270;43.434;28.338;2024-01-11T09:15:46;100815.88;;;5.47;32.62
80853;BME280;70270;43.434;28.338;2024-01-11T09:18:31;100845.47;;;5.92;31.56
80853;BME280;70270;43.434;28.338;2024-01-11T09:21:15;100827.91;;;6.41;31.77
80853;BME280;70270;43.434;28.338;2024-01-11T09:24:00;100789.84;;;5.93;31.95
80853;BME280;70270;43.434;28.338;2024-01-11T09:26:44;100806.50;;;5.96;31.99
80853;BME280;70270;43.434;28.338;2024-01-11T09:29:29;100813.34;;;6.52;31.47
80853;BME280;70270;43.434;28.338;2024-01-11T09:32:14;100828.50;;;6.53;32.85
80853;BME280;70270;43.434;28.338;2024-01-11T09:35:00;100696.72;;;6.18;31.73
80853;BME280;70270;43.434;28.338;2024-01-11T09:37:45;100792.06;;;6.41;31.58
80853;BME280;70270;43.434;28.338;2024-01-11T09:40:30;100783.34;;;6.73;31.49
80853;BME280;70270;43.434;28.338;2024-01-11T09:43:15;100809.63;;;6.27;30.62
80853;BME280;70270;43.434;28.338;2024-01-11T09:46:04;100767.44;;;6.53;30.35
80853;BME280;70270;43.434;28.338;2024-01-11T09:48:50;100780.00;;;6.79;31.38
80853;BME280;70270;43.434;28.338;2024-01-11T09:51:37;100787.53;;;7.01;30.80
80853;BME280;70270;43.434;28.338;2024-01-11T09:54:25;100653.53;;;5.93;31.82
80853;BME280;70270;43.434;28.338;2024-01-11T09:57:10;100750.00;;;6.40;31.73
80853;BME280;70270;43.434;28.338;2024-01-11T09:59:57;100636.34;;;5.69;31.00
80853;BME280;70270;43.434;28.338;2024-01-11T10:02:41;100713.38;;;5.78;30.70
80853;BME280;70270;43.434;28.338;2024-01-11T10:05:27;100593.47;;;5.41;30.72
80853;BME280;70270;43.434;28.338;2024-01-11T10:08:13;100748.00;;;6.76;31.44
80853;BME280;70270;43.434;28.338;2024-01-11T10:10:58;100605.56;;;6.56;30.56
80853;BME280;70270;43.434;28.338;2024-01-11T10:13:42;100720.84;;;7.93;30.56
80853;BME280;70270;43.434;28.338;2024-01-11T10:16:30;100575.25;;;6.54;31.03
80853;BME280;70270;43.434;28.338;2024-01-11T10:19:14;100693.22;;;6.93;31.31
80853;BME280;70270;43.434;28.338;2024-01-11T10:22:00;100715.84;;;7.16;31.91
80853;BME280;70270;43.434;28.338;2024-01-11T10:24:44;100695.31;;;7.23;32.04
80853;BME280;70270;43.434;28.338;2024-01-11T10:27:29;100575.66;;;6.84;30.91
80853;BME280;70270;43.434;28.338;2024-01-11T10:30:15;100483.19;;;6.35;30.96
80853;BME280;70270;43.434;28.338;2024-01-11T10:33:04;100659.63;;;7.62;30.15
80853;BME280;70270;43.434;28.338;2024-01-11T10:35:49;100561.56;;;6.98;30.17
80853;BME280;70270;43.434;28.338;2024-01-11T10:38:38;100541.31;;;7.34;31.34
80853;BME280;70270;43.434;28.338;2024-01-11T10:41:23;100667.41;;;8.52;29.56
80853;BME280;70270;43.434;28.338;2024-01-11T10:44:19;100638.03;;;8.57;28.71
80853;BME280;70270;43.434;28.338;2024-01-11T10:47:09;100638.13;;;8.72;29.08
80853;BME280;70270;43.434;28.338;2024-01-11T10:49:56;100648.81;;;8.65;29.88
80853;BME280;70270;43.434;28.338;2024-01-11T10:52:54;100639.13;;;8.71;30.05
80853;BME280;70270;43.434;28.338;2024-01-11T10:55:41;100618.28;;;8.87;30.05
80853;BME280;70270;43.434;28.338;2024-01-11T10:58:27;100652.31;;;9.27;29.08
80853;BME280;70270;43.434;28.338;2024-01-11T11:01:12;100519.53;;;8.15;30.18
80853;BME280;70270;43.434;28.338;2024-01-11T11:03:57;100621.78;;;8.34;30.81
80853;BME280;70270;43.434;28.338;2024-01-11T11:06:43;100603.78;;;7.86;32.23
80853;BME280;70270;43.434;28.338;2024-01-11T11:09:30;100611.88;;;7.78;32.64
80853;BME280;70270;43.434;28.338;2024-01-11T11:12:18;100612.34;;;8.14;32.93
80853;BME280;70270;43.434;28.338;2024-01-11T11:15:05;100618.91;;;8.12;32.89
80853;BME280;70270;43.434;28.338;2024-01-11T11:17:50;100614.03;;;8.07;33.23
80853;BME280;70270;43.434;28.338;2024-01-11T11:20:36;100580.56;;;8.71;33.25
80853;BME280;70270;43.434;28.338;2024-01-11T11:23:21;100595.09;;;8.31;32.79
80853;BME280;70270;43.434;28.338;2024-01-11T11:26:06;100579.31;;;8.51;32.77
80853;BME280;70270;43.434;28.338;2024-01-11T11:28:54;100575.81;;;8.73;32.46
80853;BME280;70270;43.434;28.338;2024-01-11T11:31:42;100444.88;;;8.61;32.06
80853;BME280;70270;43.434;28.338;2024-01-11T11:34:43;100544.13;;;9.13;30.86
80853;BME280;70270;43.434;28.338;2024-01-11T11:37:31;100568.94;;;8.63;31.97
80853;BME280;70270;43.434;28.338;2024-01-11T11:40:18;100554.59;;;8.31;33.10
80853;BME280;70270;43.434;28.338;2024-01-11T11:43:04;100561.59;;;8.79;31.79
80853;BME280;70270;43.434;28.338;2024-01-11T11:45:51;100547.28;;;8.71;31.71
80853;BME280;70270;43.434;28.338;2024-01-11T11:48:49;100527.72;;;8.69;32.00
80853;BME280;70270;43.434;28.338;2024-01-11T11:51:38;100553.09;;;8.60;32.03
80853;BME280;70270;43.434;28.338;2024-01-11T11:54:23;100521.41;;;8.99;31.80
80853;BME280;70270;43.434;28.338;2024-01-11T11:57:08;100394.97;;;9.09;30.77
80853;BME280;70270;43.434;28.338;2024-01-11T11:59:56;100524.34;;;10.52;29.64
80853;BME280;70270;43.434;28.338;2024-01-11T12:02:44;100511.56;;;10.82;28.58
80853;BME280;70270;43.434;28.338;2024-01-11T12:05:30;100519.03;;;11.01;28.60
80853;BME280;70270;43.434;28.338;2024-01-11T12:08:14;100489.06;;;11.31;29.19
80853;BME280;70270;43.434;28.338;2024-01-11T12:10:59;100498.22;;;11.85;27.68
80853;BME280;70270;43.434;28.338;2024-01-11T12:13:43;100501.53;;;11.53;27.72
80853;BME280;70270;43.434;28.338;2024-01-11T12:16:28;100500.94;;;11.30;26.92
80853;BME280;70270;43.434;28.338;2024-01-11T12:19:13;100387.59;;;10.12;27.75
80853;BME280;70270;43.434;28.338;2024-01-11T12:21:58;100479.84;;;11.04;27.56
80853;BME280;70270;43.434;28.338;2024-01-11T12:24:43;100292.47;;;10.37;28.03
80853;BME280;70270;43.434;28.338;2024-01-11T12:27:28;100468.44;;;11.98;26.94
80853;BME280;70270;43.434;28.338;2024-01-11T12:30:12;100486.19;;;12.42;26.49
80853;BME280;70270;43.434;28.338;2024-01-11T12:33:01;100479.72;;;12.43;26.14
80853;BME280;70270;43.434;28.338;2024-01-11T12:35:49;100488.44;;;11.07;26.89
80853;BME280;70270;43.434;28.338;2024-01-11T12:38:34;100481.44;;;10.20;28.57
80853;BME280;70270;43.434;28.338;2024-01-11T12:41:19;100451.53;;;8.96;30.47
80853;BME280;70270;43.434;28.338;2024-01-11T12:44:05;100371.34;;;8.06;30.90
80853;BME280;70270;43.434;28.338;2024-01-11T12:46:51;100466.44;;;8.08;32.32
80853;BME280;70270;43.434;28.338;2024-01-11T12:49:37;100463.53;;;7.78;31.75
80853;BME280;70270;43.434;28.338;2024-01-11T12:52:21;100462.00;;;7.84;31.98
80853;BME280;70270;43.434;28.338;2024-01-11T12:55:18;100454.50;;;8.02;32.79
80853;BME280;70270;43.434;28.338;2024-01-11T12:58:07;100464.72;;;7.76;32.97
80853;BME280;70270;43.434;28.338;2024-01-11T13:00:53;100402.25;;;7.17;33.05
80853;BME280;70270;43.434;28.338;2024-01-11T13:03:39;100436.84;;;7.52;34.07
80853;BME280;70270;43.434;28.338;2024-01-11T13:06:27;100338.16;;;6.80;33.76
80853;BME280;70270;43.434;28.338;2024-01-11T13:09:11;100308.06;;;6.69;33.75
80853;BME280;70270;43.434;28.338;2024-01-11T13:11:58;100456.50;;;8.08;33.04
80853;BME280;70270;43.434;28.338;2024-01-11T13:14:49;100391.06;;;8.06;33.27
80853;BME280;70270;43.434;28.338;2024-01-11T13:17:35;100403.75;;;9.40;30.87
80853;BME280;70270;43.434;28.338;2024-01-11T13:20:19;100427.00;;;10.29;29.36
80853;BME280;70270;43.434;28.338;2024-01-11T13:23:17;100406.56;;;10.12;28.80
80853;BME280;70270;43.434;28.338;2024-01-11T13:26:04;100411.59;;;9.35;29.73
80853;BME280;70270;43.434;28.338;2024-01-11T13:28:49;100430.19;;;9.01;30.91
80853;BME280;70270;43.434;28.338;2024-01-11T13:31:34;100430.41;;;8.77;31.61
80853;BME280;70270;43.434;28.338;2024-01-11T13:34:19;100415.97;;;8.70;31.87
80853;BME280;70270;43.434;28.338;2024-01-11T13:37:03;100257.59;;;7.40;32.46
80853;BME280;70270;43.434;28.338;2024-01-11T13:39:47;100395.19;;;8.48;32.80
80853;BME280;70270;43.434;28.338;2024-01-11T13:42:32;100196.75;;;8.43;31.95
80853;BME280;70270;43.434;28.338;2024-01-11T13:45:16;100401.75;;;11.20;29.21
80853;BME280;70270;43.434;28.338;2024-01-11T13:48:02;100406.75;;;12.46;27.88
80853;BME280;70270;43.434;28.338;2024-01-11T13:50:47;100396.31;;;12.89;26.80
80853;BME280;70270;43.434;28.338;2024-01-11T13:53:31;100398.00;;;13.17;27.09
80853;BME280;70270;43.434;28.338;2024-01-11T13:56:16;100302.91;;;11.77;27.61
80853;BME280;70270;43.434;28.338;2024-01-11T13:59:00;100356.53;;;12.29;28.07
80853;BME280;70270;43.434;28.338;2024-01-11T14:01:46;100243.22;;;11.90;27.05
80853;BME280;70270;43.434;28.338;2024-01-11T14:04:33;100396.06;;;12.45;27.46
80853;BME280;70270;43.434;28.338;2024-01-11T14:07:18;100392.88;;;12.22;28.20
80853;BME280;70270;43.434;28.338;2024-01-11T14:10:03;100388.91;;;11.70;30.08
80853;BME280;70270;43.434;28.338;2024-01-11T14:12:48;100365.91;;;10.69;31.22
80853;BME280;70270;43.434;28.338;2024-01-11T14:15:32;100356.50;;;10.44;31.25
80853;BME280;70270;43.434;28.338;2024-01-11T14:18:17;100366.34;;;10.09;31.52
80853;BME280;70270;43.434;28.338;2024-01-11T14:21:02;100373.88;;;10.50;32.01